sensor_id;sensor_type;location;lat;lon;timestamp;temperature;humidity
21047;DHT22;10682;50.874;3.656;2024-02-14T00:00:09;9.80;99.90
21047;DHT22;10682;50.874;3.656;2024-02-14T00:02:46;9.80;99.90
21047;DHT22;10682;50.874;3.656;2024-02-14T00:05:17;9.80;99.90
21047;DHT22;10682;50.874;3.656;2024-02-14T00:07:45;9.80;99.90
21047;DHT22;10682;50.874;3.656;2024-02-14T00:10:13;9.90;99.90
21047;DHT22;10682;50.874;3.656;2024-02-14T00:12:41;9.90;99.90
21047;DHT22;10682;50.874;3.656;2024-02-14T00:15:09;9.90;99.90
21047;DHT22;10682;50.874;3.656;2024-02-14T00:17:37;9.90;99.90
21047;DHT22;10682;50.874;3.656;2024-02-14T00:20:06;9.90;99.90
21047;DHT22;10682;50.874;3.656;2024-02-14T00:22:35;9.90;99.90
21047;DHT22;10682;50.874;3.656;2024-02-14T00:25:02;9.90;99.90
21047;DHT22;10682;50.874;3.656;2024-02-14T00:27:31;10.00;99.90
21047;DHT22;10682;50.874;3.656;2024-02-14T00:29:58;10.00;99.90
21047;DHT22;10682;50.874;3.656;2024-02-14T00:32:56;10.00;99.90
21047;DHT22;10682;50.874;3.656;2024-02-14T00:35:30;10.00;99.90
21047;DHT22;10682;50.874;3.656;2024-02-14T00:38:03;10.00;99.90
21047;DHT22;10682;50.874;3.656;2024-02-14T00:40:30;10.00;99.90
21047;DHT22;10682;50.874;3.656;2024-02-14T00:42:59;10.00;99.90
21047;DHT22;10682;50.874;3.656;2024-02-14T00:45:26;10.00;99.90
21047;DHT22;10682;50.874;3.656;2024-02-14T00:47:53;10.00;99.90
21047;DHT22;10682;50.874;3.656;2024-02-14T00:50:20;10.00;99.90
21047;DHT22;10682;50.874;3.656;2024-02-14T00:52:47;10.00;99.90
21047;DHT22;10682;50.874;3.656;2024-02-14T00:55:14;10.00;99.90
21047;DHT22;10682;50.874;3.656;2024-02-14T00:57:42;10.00;99.90
21047;DHT22;10682;50.874;3.656;2024-02-14T01:00:10;10.00;99.90
21047;DHT22;10682;50.874;3.656;2024-02-14T01:02:37;10.00;99.90
21047;DHT22;10682;50.874;3.656;2024-02-14T01:05:36;10.00;99.90
21047;DHT22;10682;50.874;3.656;2024-02-14T01:08:05;10.00;99.90
21047;DHT22;10682;50.874;3.656;2024-02-14T01:10:32;10.00;99.90
21047;DHT22;10682;50.874;3.656;2024-02-14T01:13:02;10.00;99.90
21047;DHT22;10682;50.874;3.656;2024-02-14T01:15:29;10.00;99.90
21047;DHT22;10682;50.874;3.656;2024-02-14T01:17:56;10.00;99.90
21047;DHT22;10682;50.874;3.656;2024-02-14T01:20:23;10.00;99.90
21047;DHT22;10682;50.874;3.656;2024-02-14T01:22:50;10.00;99.90
21047;DHT22;10682;50.874;3.656;2024-02-14T01:25:18;10.10;99.90
21047;DHT22;10682;50.874;3.656;2024-02-14T01:27:45;10.10;99.90
21047;DHT22;10682;50.874;3.656;2024-02-14T01:30:12;10.10;99.90
21047;DHT22;10682;50.874;3.656;2024-02-14T01:32:39;10.10;99.90
21047;DHT22;10682;50.874;3.656;2024-02-14T01:35:07;10.20;99.90
21047;DHT22;10682;50.874;3.656;2024-02-14T01:37:36;10.20;99.90
21047;DHT22;10682;50.874;3.656;2024-02-14T01:40:04;10.20;99.90
21047;DHT22;10682;50.874;3.656;2024-02-14T01:42:36;10.20;99.90
21047;DHT22;10682;50.874;3.656;2024-02-14T01:45:03;10.20;99.90
21047;DHT22;10682;50.874;3.656;2024-02-14T01:47:31;10.20;99.90
21047;DHT22;10682;50.874;3.656;2024-02-14T01:50:00;10.20;99.90
21047;DHT22;10682;50.874;3.656;2024-02-14T01:52:27;10.30;99.90
21047;DHT22;10682;50.874;3.656;2024-02-14T01:54:54;10.30;99.90
21047;DHT22;10682;50.874;3.656;2024-02-14T01:57:22;10.30;99.90
21047;DHT22;10682;50.874;3.656;2024-02-14T01:59:56;10.30;99.90
21047;DHT22;10682;50.874;3.656;2024-02-14T02:02:26;10.30;99.90
21047;DHT22;10682;50.874;3.656;2024-02-14T02:04:53;10.40;99.90
21047;DHT22;10682;50.874;3.656;2024-02-14T02:07:20;10.40;99.90
21047;DHT22;10682;50.874;3.656;2024-02-14T02:09:49;10.40;99.90
21047;DHT22;10682;50.874;3.656;2024-02-14T02:12:16;10.40;99.90
21047;DHT22;10682;50.874;3.656;2024-02-14T02:14:50;10.40;99.90
21047;DHT22;10682;50.874;3.656;2024-02-14T02:20:12;10.30;99.90
21047;DHT22;10682;50.874;3.656;2024-02-14T02:22:51;10.30;99.90
21047;DHT22;10682;50.874;3.656;2024-02-14T02:25:18;10.30;99.90
21047;DHT22;10682;50.874;3.656;2024-02-14T02:27:50;10.30;99.90
21047;DHT22;10682;50.874;3.656;2024-02-14T02:30:17;10.30;99.90
21047;DHT22;10682;50.874;3.656;2024-02-14T02:32:44;10.40;99.90
21047;DHT22;10682;50.874;3.656;2024-02-14T02:35:11;10.40;99.90
21047;DHT22;10682;50.874;3.656;2024-02-14T02:37:38;10.40;99.90
21047;DHT22;10682;50.874;3.656;2024-02-14T02:40:06;10.40;99.90
21047;DHT22;10682;50.874;3.656;2024-02-14T02:42:46;10.40;99.90
21047;DHT22;10682;50.874;3.656;2024-02-14T02:45:20;10.50;99.90
21047;DHT22;10682;50.874;3.656;2024-02-14T02:47:47;10.50;99.90
21047;DHT22;10682;50.874;3.656;2024-02-14T02:50:15;10.50;99.90
21047;DHT22;10682;50.874;3.656;2024-02-14T02:52:42;10.50;99.90
21047;DHT22;10682;50.874;3.656;2024-02-14T02:55:09;10.50;99.90
21047;DHT22;10682;50.874;3.656;2024-02-14T02:57:37;10.50;99.90
21047;DHT22;10682;50.874;3.656;2024-02-14T03:00:06;10.50;99.90
21047;DHT22;10682;50.874;3.656;2024-02-14T03:02:35;10.50;99.90
21047;DHT22;10682;50.874;3.656;2024-02-14T03:05:07;10.50;99.90
21047;DHT22;10682;50.874;3.656;2024-02-14T03:07:37;10.40;99.90
21047;DHT22;10682;50.874;3.656;2024-02-14T03:10:05;10.50;99.90
21047;DHT22;10682;50.874;3.656;2024-02-14T03:12:33;10.50;99.90
21047;DHT22;10682;50.874;3.656;2024-02-14T03:15:04;10.50;99.90
21047;DHT22;10682;50.874;3.656;2024-02-14T03:17:32;10.50;99.90
21047;DHT22;10682;50.874;3.656;2024-02-14T03:19:59;10.60;99.90
21047;DHT22;10682;50.874;3.656;2024-02-14T03:22:29;10.60;99.90
21047;DHT22;10682;50.874;3.656;2024-02-14T03:24:56;10.50;99.90
21047;DHT22;10682;50.874;3.656;2024-02-14T03:27:24;10.50;99.90
21047;DHT22;10682;50.874;3.656;2024-02-14T03:29:53;10.50;99.90
21047;DHT22;10682;50.874;3.656;2024-02-14T03:32:22;10.50;99.90
21047;DHT22;10682;50.874;3.656;2024-02-14T03:34:50;10.50;99.90
21047;DHT22;10682;50.874;3.656;2024-02-14T03:37:17;10.50;99.90
21047;DHT22;10682;50.874;3.656;2024-02-14T03:39:45;10.60;99.90
21047;DHT22;10682;50.874;3.656;2024-02-14T03:42:13;10.60;99.90
21047;DHT22;10682;50.874;3.656;2024-02-14T03:44:42;10.60;99.90
21047;DHT22;10682;50.874;3.656;2024-02-14T03:47:10;10.60;99.90
21047;DHT22;10682;50.874;3.656;2024-02-14T03:49:37;10.60;99.90
21047;DHT22;10682;50.874;3.656;2024-02-14T03:52:05;10.50;99.90
21047;DHT22;10682;50.874;3.656;2024-02-14T03:54:36;10.50;99.90
21047;DHT22;10682;50.874;3.656;2024-02-14T03:57:12;10.50;99.90
21047;DHT22;10682;50.874;3.656;2024-02-14T03:59:40;10.50;99.90
21047;DHT22;10682;50.874;3.656;2024-02-14T04:02:10;10.60;99.90
21047;DHT22;10682;50.874;3.656;2024-02-14T04:04:41;10.60;99.90
21047;DHT22;10682;50.874;3.656;2024-02-14T04:07:20;10.60;99.90
21047;DHT22;10682;50.874;3.656;2024-02-14T04:09:48;10.70;99.90
21047;DHT22;10682;50.874;3.656;2024-02-14T04:12:15;10.70;99.90
21047;DHT22;10682;50.874;3.656;2024-02-14T04:14:42;10.70;99.90
21047;DHT22;10682;50.874;3.656;2024-02-14T04:17:09;10.60;99.90
21047;DHT22;10682;50.874;3.656;2024-02-14T04:19:39;10.60;99.90
21047;DHT22;10682;50.874;3.656;2024-02-14T04:22:32;10.60;99.90
21047;DHT22;10682;50.874;3.656;2024-02-14T04:24:59;10.60;99.90
21047;DHT22;10682;50.874;3.656;2024-02-14T04:27:27;10.60;99.90
21047;DHT22;10682;50.874;3.656;2024-02-14T04:29:55;10.60;99.90
21047;DHT22;10682;50.874;3.656;2024-02-14T04:32:24;10.70;99.90
21047;DHT22;10682;50.874;3.656;2024-02-14T04:34:52;10.70;99.90
21047;DHT22;10682;50.874;3.656;2024-02-14T04:37:20;10.60;99.90
21047;DHT22;10682;50.874;3.656;2024-02-14T04:39:47;10.70;99.90
21047;DHT22;10682;50.874;3.656;2024-02-14T04:42:14;10.60;99.90
21047;DHT22;10682;50.874;3.656;2024-02-14T04:44:41;10.70;99.90
21047;DHT22;10682;50.874;3.656;2024-02-14T04:47:08;10.70;99.90
21047;DHT22;10682;50.874;3.656;2024-02-14T04:49:36;10.70;99.90
21047;DHT22;10682;50.874;3.656;2024-02-14T04:52:04;10.70;99.90
21047;DHT22;10682;50.874;3.656;2024-02-14T04:54:31;10.70;99.90
21047;DHT22;10682;50.874;3.656;2024-02-14T04:56:58;10.70;99.90
21047;DHT22;10682;50.874;3.656;2024-02-14T04:59:29;10.70;99.90
21047;DHT22;10682;50.874;3.656;2024-02-14T05:01:56;10.70;99.90
21047;DHT22;10682;50.874;3.656;2024-02-14T05:04:23;10.70;99.90
21047;DHT22;10682;50.874;3.656;2024-02-14T05:06:51;10.70;99.90
21047;DHT22;10682;50.874;3.656;2024-02-14T05:09:27;10.70;99.90
21047;DHT22;10682;50.874;3.656;2024-02-14T05:11:54;10.80;99.90
21047;DHT22;10682;50.874;3.656;2024-02-14T05:14:22;10.80;99.90
21047;DHT22;10682;50.874;3.656;2024-02-14T05:16:50;10.80;99.90
21047;DHT22;10682;50.874;3.656;2024-02-14T05:19:17;10.80;99.90
21047;DHT22;10682;50.874;3.656;2024-02-14T05:21:44;10.90;99.90
21047;DHT22;10682;50.874;3.656;2024-02-14T05:24:12;10.90;99.90
21047;DHT22;10682;50.874;3.656;2024-02-14T05:26:39;10.90;99.90
21047;DHT22;10682;50.874;3.656;2024-02-14T05:29:06;10.90;99.90
21047;DHT22;10682;50.874;3.656;2024-02-14T05:38:00;10.90;99.90
21047;DHT22;10682;50.874;3.656;2024-02-14T05:40:37;10.90;99.90
21047;DHT22;10682;50.874;3.656;2024-02-14T05:49:45;11.00;99.90
21047;DHT22;10682;50.874;3.656;2024-02-14T05:52:13;11.00;99.90
21047;DHT22;10682;50.874;3.656;2024-02-14T05:54:42;11.00;99.90
21047;DHT22;10682;50.874;3.656;2024-02-14T05:57:09;11.00;99.90
21047;DHT22;10682;50.874;3.656;2024-02-14T05:59:37;11.00;99.90
21047;DHT22;10682;50.874;3.656;2024-02-14T06:02:05;11.00;99.90
21047;DHT22;10682;50.874;3.656;2024-02-14T06:04:34;11.10;99.90
21047;DHT22;10682;50.874;3.656;2024-02-14T06:07:02;11.00;99.90
21047;DHT22;10682;50.874;3.656;2024-02-14T06:09:32;11.10;99.90
21047;DHT22;10682;50.874;3.656;2024-02-14T06:11:59;11.10;99.90
21047;DHT22;10682;50.874;3.656;2024-02-14T06:14:27;11.10;99.90
21047;DHT22;10682;50.874;3.656;2024-02-14T06:16:56;11.10;99.90
21047;DHT22;10682;50.874;3.656;2024-02-14T06:19:23;11.10;99.90
21047;DHT22;10682;50.874;3.656;2024-02-14T06:21:51;11.10;99.90
21047;DHT22;10682;50.874;3.656;2024-02-14T06:24:18;11.10;99.90
21047;DHT22;10682;50.874;3.656;2024-02-14T06:26:46;11.10;99.90
21047;DHT22;10682;50.874;3.656;2024-02-14T06:29:13;11.10;99.90
21047;DHT22;10682;50.874;3.656;2024-02-14T06:31:40;11.10;99.90
21047;DHT22;10682;50.874;3.656;2024-02-14T06:34:08;11.00;99.90
21047;DHT22;10682;50.874;3.656;2024-02-14T06:36:36;11.00;99.90
21047;DHT22;10682;50.874;3.656;2024-02-14T06:39:03;11.00;99.90
21047;DHT22;10682;50.874;3.656;2024-02-14T06:41:31;11.10;99.90
21047;DHT22;10682;50.874;3.656;2024-02-14T06:43:58;11.10;99.90
21047;DHT22;10682;50.874;3.656;2024-02-14T06:46:25;11.10;99.90
21047;DHT22;10682;50.874;3.656;2024-02-14T06:48:52;11.10;99.90
21047;DHT22;10682;50.874;3.656;2024-02-14T06:51:21;11.10;99.90
21047;DHT22;10682;50.874;3.656;2024-02-14T06:53:49;11.10;99.90
21047;DHT22;10682;50.874;3.656;2024-02-14T06:56:19;11.20;99.90
21047;DHT22;10682;50.874;3.656;2024-02-14T06:58:46;11.20;99.90
21047;DHT22;10682;50.874;3.656;2024-02-14T07:01:20;11.10;99.90
21047;DHT22;10682;50.874;3.656;2024-02-14T07:03:55;11.10;99.90
21047;DHT22;10682;50.874;3.656;2024-02-14T07:06:23;11.20;99.90
21047;DHT22;10682;50.874;3.656;2024-02-14T07:08:54;11.20;99.90
21047;DHT22;10682;50.874;3.656;2024-02-14T07:11:22;11.20;99.90
21047;DHT22;10682;50.874;3.656;2024-02-14T07:13:49;11.20;99.90
21047;DHT22;10682;50.874;3.656;2024-02-14T07:16:17;11.20;99.90
21047;DHT22;10682;50.874;3.656;2024-02-14T07:18:44;11.10;99.90
21047;DHT22;10682;50.874;3.656;2024-02-14T07:21:29;11.10;99.90
21047;DHT22;10682;50.874;3.656;2024-02-14T07:24:12;11.10;99.90
21047;DHT22;10682;50.874;3.656;2024-02-14T07:30:50;11.20;99.90
21047;DHT22;10682;50.874;3.656;2024-02-14T07:33:17;11.20;99.90
21047;DHT22;10682;50.874;3.656;2024-02-14T07:35:45;11.20;99.90
21047;DHT22;10682;50.874;3.656;2024-02-14T07:38:28;11.30;99.90
21047;DHT22;10682;50.874;3.656;2024-02-14T07:41:11;11.20;99.90
21047;DHT22;10682;50.874;3.656;2024-02-14T07:43:38;11.30;99.90
21047;DHT22;10682;50.874;3.656;2024-02-14T07:46:06;11.20;99.90
21047;DHT22;10682;50.874;3.656;2024-02-14T07:48:34;11.20;99.90
21047;DHT22;10682;50.874;3.656;2024-02-14T07:51:02;11.20;99.90
21047;DHT22;10682;50.874;3.656;2024-02-14T07:53:29;11.20;99.90
21047;DHT22;10682;50.874;3.656;2024-02-14T07:55:56;11.20;99.90
21047;DHT22;10682;50.874;3.656;2024-02-14T07:58:23;11.20;99.90
21047;DHT22;10682;50.874;3.656;2024-02-14T08:00:51;11.20;99.90
21047;DHT22;10682;50.874;3.656;2024-02-14T08:03:19;11.20;99.90
21047;DHT22;10682;50.874;3.656;2024-02-14T08:05:46;11.20;99.90
21047;DHT22;10682;50.874;3.656;2024-02-14T08:08:13;11.30;99.90
21047;DHT22;10682;50.874;3.656;2024-02-14T08:10:40;11.40;99.90
21047;DHT22;10682;50.874;3.656;2024-02-14T08:13:07;11.40;99.90
21047;DHT22;10682;50.874;3.656;2024-02-14T08:15:35;11.50;99.90
21047;DHT22;10682;50.874;3.656;2024-02-14T08:18:05;11.50;99.90
21047;DHT22;10682;50.874;3.656;2024-02-14T08:20:36;11.50;99.90
21047;DHT22;10682;50.874;3.656;2024-02-14T08:23:03;11.50;99.90
21047;DHT22;10682;50.874;3.656;2024-02-14T08:25:30;11.50;99.90
21047;DHT22;10682;50.874;3.656;2024-02-14T08:27:57;11.50;99.90
21047;DHT22;10682;50.874;3.656;2024-02-14T08:30:25;11.60;99.90
21047;DHT22;10682;50.874;3.656;2024-02-14T08:32:52;11.60;99.90
21047;DHT22;10682;50.874;3.656;2024-02-14T08:35:20;11.60;99.90
21047;DHT22;10682;50.874;3.656;2024-02-14T08:37:48;11.60;99.90
21047;DHT22;10682;50.874;3.656;2024-02-14T08:40:15;11.60;99.90
21047;DHT22;10682;50.874;3.656;2024-02-14T08:42:43;11.70;99.90
21047;DHT22;10682;50.874;3.656;2024-02-14T08:45:11;11.70;99.90
21047;DHT22;10682;50.874;3.656;2024-02-14T08:47:38;11.70;99.90
21047;DHT22;10682;50.874;3.656;2024-02-14T08:50:06;11.70;99.90
21047;DHT22;10682;50.874;3.656;2024-02-14T08:52:34;11.80;99.90
21047;DHT22;10682;50.874;3.656;2024-02-14T08:55:01;11.80;99.90
21047;DHT22;10682;50.874;3.656;2024-02-14T08:57:30;11.70;99.90
21047;DHT22;10682;50.874;3.656;2024-02-14T08:59:58;11.70;99.90
21047;DHT22;10682;50.874;3.656;2024-02-14T09:02:27;11.70;99.90
21047;DHT22;10682;50.874;3.656;2024-02-14T09:04:54;11.70;99.90
21047;DHT22;10682;50.874;3.656;2024-02-14T09:07:36;11.60;99.90
21047;DHT22;10682;50.874;3.656;2024-02-14T09:10:25;11.60;99.90
21047;DHT22;10682;50.874;3.656;2024-02-14T09:12:52;11.60;99.90
21047;DHT22;10682;50.874;3.656;2024-02-14T09:15:39;11.60;99.90
21047;DHT22;10682;50.874;3.656;2024-02-14T09:18:06;11.60;99.90
21047;DHT22;10682;50.874;3.656;2024-02-14T09:20:33;11.60;99.90
21047;DHT22;10682;50.874;3.656;2024-02-14T09:25:53;11.60;99.90
21047;DHT22;10682;50.874;3.656;2024-02-14T09:28:21;11.60;99.90
21047;DHT22;10682;50.874;3.656;2024-02-14T09:30:48;11.60;99.90
21047;DHT22;10682;50.874;3.656;2024-02-14T09:33:15;11.60;99.90
21047;DHT22;10682;50.874;3.656;2024-02-14T09:35:43;11.60;99.90
21047;DHT22;10682;50.874;3.656;2024-02-14T09:38:14;11.60;99.90
21047;DHT22;10682;50.874;3.656;2024-02-14T09:40:41;11.60;99.90
21047;DHT22;10682;50.874;3.656;2024-02-14T09:43:37;11.60;99.90
21047;DHT22;10682;50.874;3.656;2024-02-14T09:46:07;11.60;99.90
21047;DHT22;10682;50.874;3.656;2024-02-14T09:48:34;11.60;99.90
21047;DHT22;10682;50.874;3.656;2024-02-14T09:51:05;11.60;99.90
21047;DHT22;10682;50.874;3.656;2024-02-14T09:53:33;11.60;99.90
21047;DHT22;10682;50.874;3.656;2024-02-14T09:56:02;11.60;99.90
21047;DHT22;10682;50.874;3.656;2024-02-14T09:58:31;11.70;99.90
21047;DHT22;10682;50.874;3.656;2024-02-14T10:00:58;11.70;99.90
21047;DHT22;10682;50.874;3.656;2024-02-14T10:03:26;11.70;99.90
21047;DHT22;10682;50.874;3.656;2024-02-14T10:05:53;11.70;99.90
21047;DHT22;10682;50.874;3.656;2024-02-14T10:08:21;11.70;99.90
21047;DHT22;10682;50.874;3.656;2024-02-14T10:10:49;11.70;99.90
21047;DHT22;10682;50.874;3.656;2024-02-14T10:13:19;11.80;99.90
21047;DHT22;10682;50.874;3.656;2024-02-14T10:15:47;11.80;99.90
21047;DHT22;10682;50.874;3.656;2024-02-14T10:18:15;11.80;99.90
21047;DHT22;10682;50.874;3.656;2024-02-14T10:20:56;11.80;99.90
21047;DHT22;10682;50.874;3.656;2024-02-14T10:23:24;11.80;99.90
21047;DHT22;10682;50.874;3.656;2024-02-14T10:25:54;11.90;99.90
21047;DHT22;10682;50.874;3.656;2024-02-14T10:28:25;11.90;99.90
21047;DHT22;10682;50.874;3.656;2024-02-14T10:31:02;11.90;99.90
21047;DHT22;10682;50.874;3.656;2024-02-14T10:33:29;12.00;99.90
21047;DHT22;10682;50.874;3.656;2024-02-14T10:35:57;12.00;99.90
21047;DHT22;10682;50.874;3.656;2024-02-14T10:38:31;12.00;99.90
21047;DHT22;10682;50.874;3.656;2024-02-14T10:41:02;12.10;99.90
21047;DHT22;10682;50.874;3.656;2024-02-14T10:43:33;12.10;99.90
21047;DHT22;10682;50.874;3.656;2024-02-14T10:46:02;12.10;99.90
21047;DHT22;10682;50.874;3.656;2024-02-14T10:48:35;12.20;99.90
21047;DHT22;10682;50.874;3.656;2024-02-14T10:51:05;12.20;99.90
21047;DHT22;10682;50.874;3.656;2024-02-14T10:53:36;12.20;99.90
21047;DHT22;10682;50.874;3.656;2024-02-14T11:02:22;12.30;99.90
21047;DHT22;10682;50.874;3.656;2024-02-14T11:04:50;12.30;99.90
21047;DHT22;10682;50.874;3.656;2024-02-14T11:07:20;12.30;99.90
21047;DHT22;10682;50.874;3.656;2024-02-14T11:10:09;12.40;99.90
21047;DHT22;10682;50.874;3.656;2024-02-14T11:12:47;12.40;99.90
21047;DHT22;10682;50.874;3.656;2024-02-14T11:15:21;12.50;99.90
21047;DHT22;10682;50.874;3.656;2024-02-14T11:17:51;12.50;99.90
21047;DHT22;10682;50.874;3.656;2024-02-14T11:20:35;12.50;99.90
21047;DHT22;10682;50.874;3.656;2024-02-14T11:23:04;12.60;99.90
21047;DHT22;10682;50.874;3.656;2024-02-14T11:25:33;12.60;99.90
21047;DHT22;10682;50.874;3.656;2024-02-14T11:28:16;12.60;99.90
21047;DHT22;10682;50.874;3.656;2024-02-14T11:30:46;12.60;99.90
21047;DHT22;10682;50.874;3.656;2024-02-14T11:35:47;12.70;99.90
21047;DHT22;10682;50.874;3.656;2024-02-14T11:38:23;12.80;99.90
21047;DHT22;10682;50.874;3.656;2024-02-14T11:40:55;12.80;99.90
21047;DHT22;10682;50.874;3.656;2024-02-14T11:43:23;12.90;99.90
21047;DHT22;10682;50.874;3.656;2024-02-14T11:45:52;12.90;99.90
21047;DHT22;10682;50.874;3.656;2024-02-14T11:48:20;12.90;99.90
21047;DHT22;10682;50.874;3.656;2024-02-14T11:50:47;12.90;99.90
21047;DHT22;10682;50.874;3.656;2024-02-14T11:53:15;13.00;99.90
21047;DHT22;10682;50.874;3.656;2024-02-14T11:55:46;13.00;99.90
21047;DHT22;10682;50.874;3.656;2024-02-14T11:58:17;13.00;99.90
21047;DHT22;10682;50.874;3.656;2024-02-14T12:00:46;13.00;99.90
21047;DHT22;10682;50.874;3.656;2024-02-14T12:03:23;13.00;99.90
21047;DHT22;10682;50.874;3.656;2024-02-14T12:05:54;13.00;99.90
21047;DHT22;10682;50.874;3.656;2024-02-14T12:08:23;13.00;99.90
21047;DHT22;10682;50.874;3.656;2024-02-14T12:10:51;13.10;99.90
21047;DHT22;10682;50.874;3.656;2024-02-14T12:13:20;13.10;99.90
21047;DHT22;10682;50.874;3.656;2024-02-14T12:15:50;13.10;99.90
21047;DHT22;10682;50.874;3.656;2024-02-14T12:18:19;13.00;99.90
21047;DHT22;10682;50.874;3.656;2024-02-14T12:20:48;13.00;99.90
21047;DHT22;10682;50.874;3.656;2024-02-14T12:23:22;13.00;99.90
21047;DHT22;10682;50.874;3.656;2024-02-14T12:25:50;13.00;99.90
21047;DHT22;10682;50.874;3.656;2024-02-14T12:28:18;13.00;99.90
21047;DHT22;10682;50.874;3.656;2024-02-14T12:30:50;12.90;99.90
21047;DHT22;10682;50.874;3.656;2024-02-14T12:33:25;12.90;99.90
21047;DHT22;10682;50.874;3.656;2024-02-14T12:35:54;12.90;99.90
21047;DHT22;10682;50.874;3.656;2024-02-14T12:38:42;12.90;99.90
21047;DHT22;10682;50.874;3.656;2024-02-14T12:41:09;12.90;99.90
21047;DHT22;10682;50.874;3.656;2024-02-14T12:44:00;12.90;99.90
21047;DHT22;10682;50.874;3.656;2024-02-14T12:46:27;12.90;99.90
21047;DHT22;10682;50.874;3.656;2024-02-14T12:48:55;13.00;99.90
21047;DHT22;10682;50.874;3.656;2024-02-14T12:51:23;13.00;99.90
21047;DHT22;10682;50.874;3.656;2024-02-14T12:53:55;13.00;99.90
21047;DHT22;10682;50.874;3.656;2024-02-14T12:56:23;12.90;99.90
21047;DHT22;10682;50.874;3.656;2024-02-14T12:58:59;13.00;99.90
21047;DHT22;10682;50.874;3.656;2024-02-14T13:01:37;13.00;99.90
21047;DHT22;10682;50.874;3.656;2024-02-14T13:04:06;12.90;99.90
21047;DHT22;10682;50.874;3.656;2024-02-14T13:06:36;12.90;99.90
21047;DHT22;10682;50.874;3.656;2024-02-14T13:09:04;12.90;99.90
21047;DHT22;10682;50.874;3.656;2024-02-14T13:11:35;12.90;99.90
21047;DHT22;10682;50.874;3.656;2024-02-14T13:14:02;13.00;99.90
21047;DHT22;10682;50.874;3.656;2024-02-14T13:16:30;13.00;99.90
21047;DHT22;10682;50.874;3.656;2024-02-14T13:18:57;13.00;99.90
21047;DHT22;10682;50.874;3.656;2024-02-14T13:21:25;13.00;99.90
21047;DHT22;10682;50.874;3.656;2024-02-14T13:23:52;13.00;99.90
21047;DHT22;10682;50.874;3.656;2024-02-14T13:26:19;13.00;99.90
21047;DHT22;10682;50.874;3.656;2024-02-14T13:28:46;13.00;99.90
21047;DHT22;10682;50.874;3.656;2024-02-14T13:31:13;13.10;99.90
21047;DHT22;10682;50.874;3.656;2024-02-14T13:33:41;13.00;99.90
21047;DHT22;10682;50.874;3.656;2024-02-14T13:36:08;13.10;99.90
21047;DHT22;10682;50.874;3.656;2024-02-14T13:38:35;13.10;99.90
21047;DHT22;10682;50.874;3.656;2024-02-14T13:41:02;13.10;99.90
21047;DHT22;10682;50.874;3.656;2024-02-14T13:43:30;13.10;99.90
21047;DHT22;10682;50.874;3.656;2024-02-14T13:45:57;13.20;99.90
21047;DHT22;10682;50.874;3.656;2024-02-14T13:48:24;13.20;99.90
21047;DHT22;10682;50.874;3.656;2024-02-14T13:50:51;13.20;99.90
21047;DHT22;10682;50.874;3.656;2024-02-14T13:53:19;13.20;99.90
21047;DHT22;10682;50.874;3.656;2024-02-14T13:55:47;13.20;99.90
21047;DHT22;10682;50.874;3.656;2024-02-14T13:58:14;13.20;99.90
21047;DHT22;10682;50.874;3.656;2024-02-14T14:00:43;13.20;99.90
21047;DHT22;10682;50.874;3.656;2024-02-14T14:03:11;13.20;99.90
21047;DHT22;10682;50.874;3.656;2024-02-14T14:05:39;13.20;99.90
21047;DHT22;10682;50.874;3.656;2024-02-14T14:08:06;13.30;99.90
21047;DHT22;10682;50.874;3.656;2024-02-14T14:10:33;13.30;99.90
21047;DHT22;10682;50.874;3.656;2024-02-14T14:13:00;13.30;99.90
21047;DHT22;10682;50.874;3.656;2024-02-14T14:15:28;13.30;99.90
21047;DHT22;10682;50.874;3.656;2024-02-14T14:18:04;13.40;99.90
21047;DHT22;10682;50.874;3.656;2024-02-14T14:20:32;13.40;99.90
21047;DHT22;10682;50.874;3.656;2024-02-14T14:22:59;13.40;99.90
21047;DHT22;10682;50.874;3.656;2024-02-14T14:29:37;13.40;99.90
21047;DHT22;10682;50.874;3.656;2024-02-14T14:32:11;13.40;99.90
21047;DHT22;10682;50.874;3.656;2024-02-14T14:34:38;13.50;99.90
21047;DHT22;10682;50.874;3.656;2024-02-14T14:37:06;13.50;99.90
21047;DHT22;10682;50.874;3.656;2024-02-14T14:39:33;13.50;99.90
21047;DHT22;10682;50.874;3.656;2024-02-14T14:42:00;13.60;99.90
21047;DHT22;10682;50.874;3.656;2024-02-14T14:44:27;13.60;99.90
21047;DHT22;10682;50.874;3.656;2024-02-14T14:47:30;13.70;99.90
21047;DHT22;10682;50.874;3.656;2024-02-14T14:50:12;13.70;99.90
21047;DHT22;10682;50.874;3.656;2024-02-14T14:52:39;13.70;99.90
21047;DHT22;10682;50.874;3.656;2024-02-14T14:55:06;13.60;99.90
21047;DHT22;10682;50.874;3.656;2024-02-14T14:57:34;13.60;99.90
21047;DHT22;10682;50.874;3.656;2024-02-14T15:00:10;13.60;99.90
21047;DHT22;10682;50.874;3.656;2024-02-14T15:02:41;13.60;99.90
21047;DHT22;10682;50.874;3.656;2024-02-14T15:05:12;13.70;99.90
21047;DHT22;10682;50.874;3.656;2024-02-14T15:07:39;13.60;99.90
21047;DHT22;10682;50.874;3.656;2024-02-14T15:10:07;13.60;99.90
21047;DHT22;10682;50.874;3.656;2024-02-14T15:12:37;13.60;99.90
21047;DHT22;10682;50.874;3.656;2024-02-14T15:15:05;13.60;99.90
21047;DHT22;10682;50.874;3.656;2024-02-14T15:17:32;13.60;99.90
21047;DHT22;10682;50.874;3.656;2024-02-14T15:20:00;13.60;99.90
21047;DHT22;10682;50.874;3.656;2024-02-14T15:22:29;13.60;99.90
21047;DHT22;10682;50.874;3.656;2024-02-14T15:24:57;13.60;99.90
21047;DHT22;10682;50.874;3.656;2024-02-14T15:27:24;13.60;99.90
21047;DHT22;10682;50.874;3.656;2024-02-14T15:29:51;13.50;99.90
21047;DHT22;10682;50.874;3.656;2024-02-14T15:32:37;13.50;99.90
21047;DHT22;10682;50.874;3.656;2024-02-14T15:35:22;13.50;99.90
21047;DHT22;10682;50.874;3.656;2024-02-14T15:37:49;13.50;99.90
21047;DHT22;10682;50.874;3.656;2024-02-14T15:40:19;13.50;99.90
21047;DHT22;10682;50.874;3.656;2024-02-14T15:42:47;13.40;99.90
21047;DHT22;10682;50.874;3.656;2024-02-14T15:45:14;13.40;99.90
21047;DHT22;10682;50.874;3.656;2024-02-14T15:47:44;13.40;99.90
21047;DHT22;10682;50.874;3.656;2024-02-14T15:50:12;13.30;99.90
21047;DHT22;10682;50.874;3.656;2024-02-14T15:52:39;13.30;99.90
21047;DHT22;10682;50.874;3.656;2024-02-14T15:55:07;13.30;99.90
21047;DHT22;10682;50.874;3.656;2024-02-14T15:57:38;13.30;99.90
21047;DHT22;10682;50.874;3.656;2024-02-14T16:00:07;13.30;99.90
21047;DHT22;10682;50.874;3.656;2024-02-14T16:02:37;13.30;99.90
21047;DHT22;10682;50.874;3.656;2024-02-14T16:05:04;13.30;99.90
21047;DHT22;10682;50.874;3.656;2024-02-14T16:07:37;13.30;99.90
21047;DHT22;10682;50.874;3.656;2024-02-14T16:13:17;13.20;99.90
21047;DHT22;10682;50.874;3.656;2024-02-14T16:16:01;13.30;99.90
21047;DHT22;10682;50.874;3.656;2024-02-14T16:18:34;13.30;99.90
21047;DHT22;10682;50.874;3.656;2024-02-14T16:21:02;13.30;99.90
21047;DHT22;10682;50.874;3.656;2024-02-14T16:23:29;13.20;99.90
21047;DHT22;10682;50.874;3.656;2024-02-14T16:25:58;13.20;99.90